Terminal Aerodrome Forecast
Issued by NWS

Home | Current Version | Previous Version | Text Only | Print | Product List | Glossary On
Versions: 1 2 3 4 5 6 7 8 9 10 11 12 13 14
241
FTUS45 KFGZ 262320
TAFGCN
TAF
KGCN 262320Z 2700/2724 24008KT P6SM FEW120 SCT250
     FM270130 VRB03KT P6SM SCT120 BKN250
     FM271800 22017G30KT P6SM FEW060 BKN100 PROB30 2721/2724 -SHRA
      BKN060=

USA.gov is the U.S. government's official web portal to all federal, state and local government web resources and services.